createdAt,value
2019-05-15T00:00:48.124Z,10.67
2019-05-15T00:01:48.875Z,10.53
2019-05-15T00:02:48.177Z,10.53
2019-05-15T00:03:49.291Z,10.41
2019-05-15T00:04:49.221Z,10.41
2019-05-15T00:05:49.602Z,10.42
2019-05-15T00:06:48.578Z,10.46
2019-05-15T00:07:48.433Z,10.40
2019-05-15T00:08:47.985Z,10.41
2019-05-15T00:09:49.197Z,10.31
2019-05-15T00:10:48.393Z,10.31
2019-05-15T00:11:48.159Z,10.26
2019-05-15T00:12:48.708Z,10.22
2019-05-15T00:13:48.342Z,10.30
2019-05-15T00:14:48.438Z,10.26
2019-05-15T00:15:48.146Z,10.20
2019-05-15T00:16:48.216Z,10.19
2019-05-15T00:17:48.538Z,10.25
2019-05-15T00:18:48.262Z,10.13
2019-05-15T00:19:48.595Z,10.12
2019-05-15T00:20:49.386Z,10.02
2019-05-15T00:21:48.857Z,10.07
2019-05-15T00:22:48.467Z,10.09
2019-05-15T00:23:49.245Z,10.02
2019-05-15T00:24:48.666Z,10.01
2019-05-15T00:25:48.746Z,9.99
2019-05-15T00:26:48.078Z,9.95
2019-05-15T00:27:48.936Z,9.94
2019-05-15T00:28:48.001Z,9.92
2019-05-15T00:29:48.632Z,9.77
2019-05-15T00:30:48.147Z,9.87
2019-05-15T00:31:48.550Z,9.86
2019-05-15T00:32:48.619Z,9.79
2019-05-15T00:33:48.245Z,9.80
2019-05-15T00:34:48.683Z,9.77
2019-05-15T00:35:48.438Z,9.76
2019-05-15T00:36:48.725Z,9.76
2019-05-15T00:37:46.309Z,9.74
2019-05-15T00:38:48.273Z,9.69
2019-05-15T00:39:48.441Z,9.73
2019-05-15T00:40:46.200Z,9.68
2019-05-15T00:41:53.327Z,9.68
2019-05-15T00:42:46.135Z,9.59
2019-05-15T00:43:46.105Z,9.65
2019-05-15T00:44:46.065Z,9.61
2019-05-15T00:45:46.029Z,9.55
2019-05-15T00:46:45.996Z,9.55
2019-05-15T00:47:45.961Z,9.43
2019-05-15T00:48:45.931Z,9.47
2019-05-15T00:49:45.897Z,9.39
2019-05-15T00:50:45.864Z,9.34
2019-05-15T00:51:48.447Z,9.29
2019-05-15T00:52:45.781Z,9.26
2019-05-15T00:53:48.149Z,9.29
2019-05-15T00:54:45.716Z,9.31
2019-05-15T00:55:45.684Z,9.25
2019-05-15T00:56:45.646Z,9.32
2019-05-15T00:57:45.611Z,9.29
2019-05-15T00:58:45.571Z,9.28
2019-05-15T00:59:45.545Z,9.22
2019-05-15T01:00:45.500Z,9.25
2019-05-15T01:01:45.470Z,9.11
2019-05-15T01:02:45.432Z,9.16
2019-05-15T01:03:45.391Z,9.13
2019-05-15T01:04:45.357Z,9.10
2019-05-15T01:05:45.334Z,9.06
2019-05-15T01:06:45.287Z,9.18
2019-05-15T01:07:45.261Z,9.11
2019-05-15T01:08:45.222Z,9.13
2019-05-15T01:09:45.180Z,9.06
2019-05-15T01:10:45.142Z,9.03
2019-05-15T01:11:45.107Z,8.92
2019-05-15T01:12:45.074Z,9.02
2019-05-15T01:13:45.041Z,9.03
2019-05-15T01:14:45.007Z,9.00
2019-05-15T01:15:44.966Z,9.00
2019-05-15T01:16:44.933Z,9.03
2019-05-15T01:17:44.893Z,9.06
2019-05-15T01:18:44.865Z,8.91
2019-05-15T01:19:44.828Z,8.99
2019-05-15T01:20:44.803Z,8.94
2019-05-15T01:21:44.755Z,8.94
2019-05-15T01:22:44.723Z,8.91
2019-05-15T01:23:44.686Z,8.85
2019-05-15T01:24:44.647Z,8.94
2019-05-15T01:25:44.616Z,8.88
2019-05-15T01:26:44.586Z,8.99
2019-05-15T01:27:44.537Z,8.95
2019-05-15T01:28:44.512Z,8.87
2019-05-15T01:29:45.301Z,8.88
2019-05-15T01:30:44.441Z,8.85
2019-05-15T01:31:44.403Z,8.85
2019-05-15T01:32:44.363Z,8.85
2019-05-15T01:33:44.332Z,8.94
2019-05-15T01:34:44.298Z,8.82
2019-05-15T01:35:44.249Z,8.78
2019-05-15T01:36:44.228Z,8.89
2019-05-15T01:37:44.193Z,8.79
2019-05-15T01:38:44.151Z,8.78
2019-05-15T01:39:44.122Z,8.70
2019-05-15T01:40:44.079Z,8.64
2019-05-15T01:41:44.061Z,8.74
2019-05-15T01:42:44.002Z,8.69
2019-05-15T01:43:43.969Z,8.56
2019-05-15T01:44:43.945Z,8.67
2019-05-15T01:45:43.902Z,8.55
2019-05-15T01:46:43.869Z,8.64
2019-05-15T01:47:43.831Z,8.55
2019-05-15T01:48:43.805Z,8.45
2019-05-15T01:49:43.762Z,8.46
2019-05-15T01:50:43.717Z,8.38
2019-05-15T01:51:43.688Z,8.45
2019-05-15T01:52:43.652Z,8.38
2019-05-15T01:53:43.624Z,8.36
2019-05-15T01:54:43.583Z,8.34
2019-05-15T01:55:43.539Z,8.34
2019-05-15T01:56:43.508Z,8.41
2019-05-15T01:57:43.483Z,8.41
2019-05-15T01:58:43.443Z,8.36
2019-05-15T01:59:56.434Z,8.42
2019-05-15T02:00:43.364Z,8.23
2019-05-15T02:01:43.333Z,8.30
2019-05-15T02:02:43.292Z,8.20
2019-05-15T02:03:43.265Z,8.28
2019-05-15T02:04:43.222Z,8.16
2019-05-15T02:05:43.185Z,8.23
2019-05-15T02:06:43.147Z,8.28
2019-05-15T02:07:43.116Z,8.23
2019-05-15T02:08:43.075Z,8.19
2019-05-15T02:09:43.046Z,8.20
2019-05-15T02:10:43.007Z,8.19
2019-05-15T02:11:42.966Z,8.18
2019-05-15T02:12:42.927Z,8.19
2019-05-15T02:13:42.896Z,8.23
2019-05-15T02:14:42.873Z,8.12
2019-05-15T02:15:42.817Z,8.20
2019-05-15T02:16:42.794Z,8.15
2019-05-15T02:17:42.758Z,8.15
2019-05-15T02:18:42.730Z,8.23
2019-05-15T02:19:42.676Z,8.12
2019-05-15T02:20:42.645Z,8.12
2019-05-15T02:21:42.616Z,8.03
2019-05-15T02:22:42.759Z,8.08
2019-05-15T02:23:42.536Z,8.06
2019-05-15T02:24:42.506Z,8.08
2019-05-15T02:25:42.461Z,8.05
2019-05-15T02:26:42.431Z,8.01
2019-05-15T02:27:42.390Z,8.03
2019-05-15T02:28:42.355Z,7.87
2019-05-15T02:29:42.327Z,7.87
2019-05-15T02:30:42.299Z,7.82
2019-05-15T02:31:42.263Z,7.85
2019-05-15T02:32:42.212Z,7.83
2019-05-15T02:33:42.179Z,7.72
2019-05-15T02:34:42.142Z,7.72
2019-05-15T02:35:42.101Z,7.69
2019-05-15T02:36:42.073Z,7.61
2019-05-15T02:37:42.033Z,7.67
2019-05-15T02:38:42.006Z,7.58
2019-05-15T02:39:41.965Z,7.63
2019-05-15T02:40:41.932Z,7.63
2019-05-15T02:41:41.891Z,7.66
2019-05-15T02:42:41.850Z,7.60
2019-05-15T02:43:41.817Z,7.53
2019-05-15T02:44:41.785Z,7.57
2019-05-15T02:45:42.673Z,7.47
2019-05-15T02:46:41.709Z,7.56
2019-05-15T02:47:41.670Z,7.56
2019-05-15T02:48:41.640Z,7.50
2019-05-15T02:49:41.599Z,7.56
2019-05-15T02:50:41.559Z,7.45
2019-05-15T02:51:41.518Z,7.50
2019-05-15T02:52:45.200Z,7.53
2019-05-15T02:53:41.453Z,7.45
2019-05-15T02:54:41.424Z,7.47
2019-05-15T02:55:41.378Z,7.51
2019-05-15T02:56:41.345Z,7.50
2019-05-15T02:57:41.307Z,7.56
2019-05-15T02:58:41.275Z,7.43
2019-05-15T02:59:41.233Z,7.47
2019-05-15T03:00:48.404Z,7.47
2019-05-15T03:01:41.164Z,7.40
2019-05-15T03:02:41.761Z,7.42
2019-05-15T03:03:41.082Z,7.38
2019-05-15T03:04:41.050Z,7.35
2019-05-15T03:05:41.303Z,7.40
2019-05-15T03:06:40.979Z,7.35
2019-05-15T03:07:40.942Z,7.29
2019-05-15T03:08:40.908Z,7.23
2019-05-15T03:09:40.873Z,7.24
2019-05-15T03:10:41.161Z,7.29
2019-05-15T03:11:41.290Z,7.18
2019-05-15T03:12:41.290Z,7.17
2019-05-15T03:13:40.728Z,7.18
2019-05-15T03:14:40.690Z,7.15
2019-05-15T03:15:40.949Z,7.13
2019-05-15T03:16:40.616Z,7.23
2019-05-15T03:17:41.040Z,7.07
2019-05-15T03:18:40.541Z,6.99
2019-05-15T03:19:40.499Z,7.11
2019-05-15T03:20:40.471Z,6.97
2019-05-15T03:21:40.432Z,7.10
2019-05-15T03:22:40.787Z,7.03
2019-05-15T03:23:40.874Z,6.96
2019-05-15T03:24:40.329Z,6.88
2019-05-15T03:25:40.922Z,6.87
2019-05-15T03:26:40.247Z,6.84
2019-05-15T03:27:40.422Z,6.78
2019-05-15T03:28:40.175Z,6.77
2019-05-15T03:29:40.581Z,6.69
2019-05-15T03:31:13.426Z,6.77
2019-05-15T03:31:52.801Z,6.69
2019-05-15T03:32:52.313Z,6.75
2019-05-15T03:33:46.029Z,6.69
2019-05-15T03:34:46.834Z,6.75
2019-05-15T03:35:42.764Z,6.72
2019-05-15T03:36:45.158Z,6.72
2019-05-15T03:37:40.159Z,6.77
2019-05-15T03:38:39.842Z,6.72
2019-05-15T03:39:39.772Z,6.78
2019-05-15T03:40:40.122Z,6.77
2019-05-15T03:41:39.692Z,6.74
2019-05-15T03:42:40.046Z,6.69
2019-05-15T03:43:39.677Z,6.79
2019-05-15T03:44:39.603Z,6.69
2019-05-15T03:45:40.620Z,6.77
2019-05-15T03:46:40.009Z,6.82
2019-05-15T03:47:40.450Z,6.82
2019-05-15T03:48:40.484Z,6.84
2019-05-15T03:49:39.896Z,6.87
2019-05-15T03:50:40.529Z,6.78
2019-05-15T03:51:44.780Z,6.87
2019-05-15T03:52:39.959Z,6.84
2019-05-15T03:53:40.257Z,6.85
2019-05-15T03:54:39.590Z,6.89
2019-05-15T03:55:40.554Z,6.87
2019-05-15T03:56:39.650Z,6.82
2019-05-15T03:57:40.175Z,6.87
2019-05-15T03:58:40.069Z,6.87
2019-05-15T03:59:39.915Z,6.85
2019-05-15T04:00:39.771Z,6.87
2019-05-15T04:01:43.704Z,6.87
2019-05-15T04:02:39.676Z,6.78
2019-05-15T04:03:39.148Z,6.69
2019-05-15T04:04:39.227Z,6.74
2019-05-15T04:05:39.251Z,6.78
2019-05-15T04:06:39.266Z,6.72
2019-05-15T04:07:39.752Z,6.67
2019-05-15T04:08:39.291Z,6.79
2019-05-15T04:09:38.835Z,6.66
2019-05-15T04:10:39.971Z,6.67
2019-05-15T04:11:38.966Z,6.69
2019-05-15T04:12:40.329Z,6.78
2019-05-15T04:13:39.799Z,6.67
2019-05-15T04:14:39.452Z,6.63
2019-05-15T04:15:39.605Z,6.64
2019-05-15T04:16:39.293Z,6.64
2019-05-15T04:17:40.025Z,6.63
2019-05-15T04:18:39.605Z,6.70
2019-05-15T04:19:39.190Z,6.60
2019-05-15T04:20:40.409Z,6.66
2019-05-15T04:21:44.011Z,6.56
2019-05-15T04:22:40.055Z,6.57
2019-05-15T04:23:39.065Z,6.63
2019-05-15T04:24:39.427Z,6.52
2019-05-15T04:25:39.151Z,6.59
2019-05-15T04:26:39.498Z,6.57
2019-05-15T04:27:39.005Z,6.54
2019-05-15T04:28:41.216Z,6.56
2019-05-15T04:29:39.727Z,6.59
2019-05-15T04:30:39.304Z,6.54
2019-05-15T04:31:51.995Z,6.56
2019-05-15T04:32:39.807Z,6.57
2019-05-15T04:33:39.863Z,6.59
2019-05-15T04:34:39.688Z,6.49
2019-05-15T04:35:40.182Z,6.62
2019-05-15T04:36:39.090Z,6.52
2019-05-15T04:37:40.494Z,6.67
2019-05-15T04:38:39.227Z,6.54
2019-05-15T04:39:39.994Z,6.63
2019-05-15T04:40:39.665Z,6.66
2019-05-15T04:41:39.290Z,6.63
2019-05-15T04:42:39.864Z,6.63
2019-05-15T04:43:43.742Z,6.62
2019-05-15T04:44:39.525Z,6.75
2019-05-15T04:45:39.179Z,6.72
2019-05-15T04:46:39.198Z,6.69
2019-05-15T04:47:39.658Z,6.79
2019-05-15T04:48:39.784Z,6.82
2019-05-15T04:49:39.424Z,6.85
2019-05-15T04:50:39.956Z,6.82
2019-05-15T04:51:39.181Z,6.81
2019-05-15T04:52:39.430Z,6.84
2019-05-15T04:53:39.432Z,6.89
2019-05-15T04:54:40.146Z,6.92
2019-05-15T04:55:40.464Z,6.95
2019-05-15T04:56:39.915Z,6.92
2019-05-15T04:57:39.991Z,6.88
2019-05-15T04:58:39.533Z,7.03
2019-05-15T04:59:38.957Z,6.96
2019-05-15T05:00:39.812Z,6.96
2019-05-15T05:01:40.029Z,7.02
2019-05-15T05:02:39.469Z,7.02
2019-05-15T05:03:39.359Z,7.06
2019-05-15T05:04:38.818Z,7.10
2019-05-15T05:05:38.728Z,7.03
2019-05-15T05:06:38.684Z,7.07
2019-05-15T05:07:38.941Z,7.17
2019-05-15T05:08:39.459Z,7.05
2019-05-15T05:09:38.983Z,7.07
2019-05-15T05:10:39.359Z,7.17
2019-05-15T05:11:38.308Z,7.14
2019-05-15T05:12:40.987Z,7.23
2019-05-15T05:13:38.955Z,7.15
2019-05-15T05:14:38.921Z,7.28
2019-05-15T05:15:38.721Z,7.14
2019-05-15T05:16:38.998Z,7.28
2019-05-15T05:17:38.791Z,7.28
2019-05-15T05:18:40.477Z,7.35
2019-05-15T05:19:36.091Z,7.25
2019-05-15T05:20:38.112Z,7.38
2019-05-15T05:21:38.408Z,7.38
2019-05-15T05:22:35.972Z,7.36
2019-05-15T05:23:37.774Z,7.36
2019-05-15T05:24:35.931Z,7.35
2019-05-15T05:25:35.866Z,7.42
2019-05-15T05:26:38.038Z,7.43
2019-05-15T05:27:38.030Z,7.43
2019-05-15T05:28:37.789Z,7.42
2019-05-15T05:29:35.722Z,7.47
2019-05-15T05:30:35.688Z,7.51
2019-05-15T05:31:35.655Z,7.50
2019-05-15T05:32:38.758Z,7.67
2019-05-15T05:33:37.945Z,7.61
2019-05-15T05:34:35.546Z,7.60
2019-05-15T05:35:35.508Z,7.69
2019-05-15T05:36:35.472Z,7.58
2019-05-15T05:37:35.431Z,7.66
2019-05-15T05:38:35.395Z,7.79
2019-05-15T05:39:35.373Z,7.73
2019-05-15T05:40:35.330Z,7.80
2019-05-15T05:41:35.286Z,7.77
2019-05-15T05:42:35.246Z,7.87
2019-05-15T05:43:35.207Z,7.93
2019-05-15T05:44:35.174Z,7.93
2019-05-15T05:45:35.153Z,7.95
2019-05-15T05:46:35.101Z,7.97
2019-05-15T05:47:35.070Z,8.05
2019-05-15T05:48:35.037Z,8.08
2019-05-15T05:49:34.989Z,8.20
2019-05-15T05:50:34.969Z,8.19
2019-05-15T05:51:34.927Z,8.24
2019-05-15T05:52:34.889Z,8.20
2019-05-15T05:53:34.857Z,8.34
2019-05-15T05:54:34.814Z,8.38
2019-05-15T05:55:34.781Z,8.42
2019-05-15T05:56:34.749Z,8.31
2019-05-15T05:57:34.714Z,8.37
2019-05-15T05:58:34.669Z,8.61
2019-05-15T05:59:34.636Z,8.53
2019-05-15T06:00:34.607Z,8.55
2019-05-15T06:01:38.313Z,8.63
2019-05-15T06:02:44.727Z,8.56
2019-05-15T06:03:34.493Z,8.64
2019-05-15T06:04:34.458Z,8.64
2019-05-15T06:05:34.423Z,8.70
2019-05-15T06:06:34.385Z,8.67
2019-05-15T06:07:35.502Z,8.74
2019-05-15T06:08:34.312Z,8.79
2019-05-15T06:09:34.274Z,8.84
2019-05-15T06:10:34.247Z,8.85
2019-05-15T06:11:34.209Z,8.87
2019-05-15T06:12:34.188Z,8.87
2019-05-15T06:13:34.133Z,8.94
2019-05-15T06:14:34.094Z,8.94
2019-05-15T06:15:34.063Z,9.10
2019-05-15T06:16:34.028Z,9.03
2019-05-15T06:17:33.994Z,9.18
2019-05-15T06:18:33.951Z,9.11
2019-05-15T06:19:33.920Z,9.16
2019-05-15T06:20:33.885Z,9.21
2019-05-15T06:21:33.845Z,9.23
2019-05-15T06:22:33.809Z,9.36
2019-05-15T06:23:35.834Z,9.37
2019-05-15T06:24:33.740Z,9.34
2019-05-15T06:25:33.696Z,9.31
2019-05-15T06:26:33.669Z,9.34
2019-05-15T06:27:33.635Z,9.29
2019-05-15T06:28:33.594Z,9.41
2019-05-15T06:29:33.566Z,9.43
2019-05-15T06:30:33.549Z,9.43
2019-05-15T06:31:33.499Z,9.59
2019-05-15T06:32:33.461Z,9.59
2019-05-15T06:33:33.416Z,9.66
2019-05-15T06:34:33.384Z,9.66
2019-05-15T06:35:33.355Z,9.73
2019-05-15T06:36:33.321Z,9.74
2019-05-15T06:37:33.275Z,9.83
2019-05-15T06:38:33.256Z,9.89
2019-05-15T06:39:33.208Z,9.82
2019-05-15T06:40:33.175Z,9.80
2019-05-15T06:41:33.999Z,9.91
2019-05-15T06:42:33.106Z,9.89
2019-05-15T06:43:33.066Z,9.97
2019-05-15T06:44:33.032Z,9.97
2019-05-15T06:45:33.002Z,10.12
2019-05-15T06:46:32.967Z,10.09
2019-05-15T06:47:32.936Z,10.07
2019-05-15T06:48:32.891Z,10.16
2019-05-15T06:49:32.865Z,10.12
2019-05-15T06:50:32.820Z,10.16
2019-05-15T06:51:32.785Z,10.25
2019-05-15T06:52:32.751Z,10.25
2019-05-15T06:53:32.716Z,10.34
2019-05-15T06:54:32.682Z,10.23
2019-05-15T06:55:32.658Z,10.34
2019-05-15T06:56:32.618Z,10.30
2019-05-15T06:57:32.580Z,10.40
2019-05-15T06:58:32.547Z,10.40
2019-05-15T06:59:32.511Z,10.40
2019-05-15T07:00:32.473Z,10.46
2019-05-15T07:01:32.441Z,10.53
2019-05-15T07:02:32.408Z,10.59
2019-05-15T07:03:32.368Z,10.61
2019-05-15T07:04:32.333Z,10.67
2019-05-15T07:05:32.296Z,10.68
2019-05-15T07:06:32.279Z,10.72
2019-05-15T07:07:32.233Z,10.74
2019-05-15T07:08:32.196Z,10.82
2019-05-15T07:09:32.164Z,10.76
2019-05-15T07:10:32.151Z,10.78
2019-05-15T07:11:32.088Z,10.84
2019-05-15T07:12:32.062Z,10.92
2019-05-15T07:13:32.026Z,11.00
2019-05-15T07:14:31.989Z,11.04
2019-05-15T07:15:31.958Z,11.14
2019-05-15T07:16:31.929Z,11.02
2019-05-15T07:17:31.884Z,11.19
2019-05-15T07:18:31.863Z,11.27
2019-05-15T07:19:31.820Z,11.30
2019-05-15T07:20:31.778Z,11.43
2019-05-15T07:21:31.744Z,11.47
2019-05-15T07:22:31.714Z,11.41
2019-05-15T07:23:31.679Z,11.50
2019-05-15T07:24:31.691Z,11.50
2019-05-15T07:25:31.613Z,11.59
2019-05-15T07:26:31.577Z,11.69
2019-05-15T07:27:31.539Z,11.69
2019-05-15T07:28:31.513Z,11.69
2019-05-15T07:29:31.472Z,11.77
2019-05-15T07:30:31.459Z,11.80
2019-05-15T07:31:31.404Z,11.83
2019-05-15T07:32:31.373Z,12.00
2019-05-15T07:33:39.541Z,12.04
2019-05-15T07:34:31.336Z,12.10
2019-05-15T07:35:31.274Z,12.10
2019-05-15T07:36:31.241Z,12.17
2019-05-15T07:37:31.210Z,12.22
2019-05-15T07:38:31.160Z,12.20
2019-05-15T07:39:31.134Z,12.25
2019-05-15T07:40:31.101Z,12.20
2019-05-15T07:41:31.063Z,12.28
2019-05-15T07:42:31.036Z,12.32
2019-05-15T07:43:31.004Z,12.37
2019-05-15T07:44:30.974Z,12.39
2019-05-15T07:45:30.936Z,12.39
2019-05-15T07:46:30.898Z,12.32
2019-05-15T07:47:30.866Z,12.39
2019-05-15T07:48:30.826Z,12.36
2019-05-15T07:49:30.791Z,12.37
2019-05-15T07:50:30.765Z,12.35
2019-05-15T07:51:30.730Z,12.31
2019-05-15T07:52:30.690Z,12.31
2019-05-15T07:53:30.666Z,12.36
2019-05-15T07:54:30.635Z,12.36
2019-05-15T07:55:30.607Z,12.50
2019-05-15T07:56:30.560Z,12.54
2019-05-15T07:57:30.530Z,12.62
2019-05-15T07:58:30.501Z,12.62
2019-05-15T07:59:30.464Z,12.64
2019-05-15T08:00:30.431Z,12.70
2019-05-15T08:01:30.421Z,12.76
2019-05-15T08:02:30.370Z,12.73
2019-05-15T08:03:30.329Z,12.72
2019-05-15T08:04:32.919Z,12.62
2019-05-15T08:05:30.262Z,12.72
2019-05-15T08:06:30.235Z,12.67
2019-05-15T08:07:30.199Z,12.73
2019-05-15T08:08:30.167Z,12.79
2019-05-15T08:09:30.128Z,12.83
2019-05-15T08:10:30.093Z,12.91
2019-05-15T08:11:30.071Z,12.97
2019-05-15T08:12:30.029Z,13.01
2019-05-15T08:13:29.990Z,13.12
2019-05-15T08:14:29.967Z,13.04
2019-05-15T08:15:29.922Z,13.09
2019-05-15T08:16:29.895Z,13.12
2019-05-15T08:17:29.885Z,13.11
2019-05-15T08:18:29.825Z,13.11
2019-05-15T08:19:29.791Z,13.01
2019-05-15T08:20:29.776Z,13.08
2019-05-15T08:21:29.726Z,13.13
2019-05-15T08:22:29.693Z,13.15
2019-05-15T08:23:29.663Z,13.08
2019-05-15T08:24:29.996Z,13.25
2019-05-15T08:25:35.033Z,13.09
2019-05-15T08:26:29.568Z,13.11
2019-05-15T08:27:30.056Z,13.08
2019-05-15T08:28:29.496Z,13.03
2019-05-15T08:29:29.461Z,13.08
2019-05-15T08:30:29.425Z,13.01
2019-05-15T08:31:29.398Z,12.94
2019-05-15T08:32:29.386Z,12.98
2019-05-15T08:33:29.326Z,13.00
2019-05-15T08:34:29.290Z,12.98
2019-05-15T08:35:29.346Z,12.98
2019-05-15T08:36:31.263Z,13.04
2019-05-15T08:37:29.345Z,12.97
2019-05-15T08:38:29.169Z,13.11
2019-05-15T08:39:29.132Z,13.13
2019-05-15T08:40:29.093Z,13.19
2019-05-15T08:41:29.610Z,13.11
2019-05-15T08:42:31.947Z,13.18
2019-05-15T08:43:31.221Z,13.11
2019-05-15T08:44:29.501Z,13.04
2019-05-15T08:45:28.937Z,13.11
2019-05-15T08:46:28.897Z,13.04
2019-05-15T08:47:29.688Z,13.09
2019-05-15T08:48:28.837Z,13.15
2019-05-15T08:49:28.808Z,13.19
2019-05-15T08:50:28.860Z,13.12
2019-05-15T08:51:28.729Z,13.15
2019-05-15T08:52:28.699Z,13.15
2019-05-15T08:53:28.895Z,13.15
2019-05-15T08:54:29.183Z,13.18
2019-05-15T08:55:28.608Z,13.37
2019-05-15T08:56:29.054Z,13.35
2019-05-15T08:57:29.035Z,13.35
2019-05-15T08:58:29.078Z,13.50
2019-05-15T08:59:29.429Z,13.59
2019-05-15T09:00:29.452Z,13.53
2019-05-15T09:01:28.878Z,13.52
2019-05-15T09:02:28.900Z,13.62
2019-05-15T09:03:28.740Z,13.63
2019-05-15T09:04:34.418Z,13.79
2019-05-15T09:05:28.369Z,13.83
2019-05-15T09:06:29.206Z,13.87
2019-05-15T09:07:28.743Z,13.93
2019-05-15T09:08:29.370Z,13.86
2019-05-15T09:09:28.774Z,13.77
2019-05-15T09:10:28.766Z,13.77
2019-05-15T09:11:28.434Z,13.78
2019-05-15T09:12:29.459Z,13.79
2019-05-15T09:13:29.241Z,13.77
2019-05-15T09:14:28.622Z,13.78
2019-05-15T09:15:29.344Z,13.75
2019-05-15T09:16:28.107Z,13.79
2019-05-15T09:17:28.561Z,13.79
2019-05-15T09:18:28.364Z,13.78
2019-05-15T09:19:28.151Z,13.93
2019-05-15T09:20:28.732Z,14.04
2019-05-15T09:21:28.357Z,14.14
2019-05-15T09:22:29.193Z,14.23
2019-05-15T09:23:28.887Z,14.23
2019-05-15T09:24:28.646Z,14.18
2019-05-15T09:25:28.771Z,14.23
2019-05-15T09:26:28.402Z,14.28
2019-05-15T09:27:27.929Z,14.28
2019-05-15T09:28:29.599Z,14.32
2019-05-15T09:29:28.533Z,14.30
2019-05-15T09:30:28.615Z,14.32
2019-05-15T09:31:28.445Z,14.29
2019-05-15T09:32:28.524Z,14.41
2019-05-15T09:33:28.586Z,14.37
2019-05-15T09:34:44.929Z,14.33
2019-05-15T09:35:27.797Z,14.43
2019-05-15T09:36:28.839Z,14.41
2019-05-15T09:37:28.692Z,14.51
2019-05-15T09:38:28.990Z,14.47
2019-05-15T09:39:28.657Z,14.54
2019-05-15T09:40:41.852Z,14.45
2019-05-15T09:41:28.610Z,14.45
2019-05-15T09:42:28.619Z,14.44
2019-05-15T09:43:28.525Z,14.54
2019-05-15T09:44:28.360Z,14.51
2019-05-15T09:45:28.609Z,14.45
2019-05-15T09:46:28.975Z,14.35
2019-05-15T09:47:29.492Z,14.48
2019-05-15T09:48:28.636Z,14.62
2019-05-15T09:49:28.589Z,14.59
2019-05-15T09:50:28.203Z,14.77
2019-05-15T09:51:29.023Z,14.53
2019-05-15T09:52:29.333Z,14.62
2019-05-15T09:53:28.502Z,14.70
2019-05-15T09:54:29.108Z,14.77
2019-05-15T09:55:28.543Z,14.78
2019-05-15T09:56:29.080Z,14.91
2019-05-15T09:57:29.981Z,14.84
2019-05-15T09:58:26.579Z,15.07
2019-05-15T09:59:28.133Z,15.31
2019-05-15T10:00:29.083Z,15.59
2019-05-15T10:01:28.467Z,15.80
2019-05-15T10:02:28.380Z,15.94
2019-05-15T10:03:28.275Z,16.10
2019-05-15T10:04:28.675Z,16.36
2019-05-15T10:05:28.130Z,16.47
2019-05-15T10:06:28.514Z,16.43
2019-05-15T10:07:28.531Z,16.58
2019-05-15T10:08:29.056Z,16.89
2019-05-15T10:09:28.480Z,17.22
2019-05-15T10:10:28.315Z,17.31
2019-05-15T10:11:28.712Z,17.57
2019-05-15T10:12:31.353Z,17.60
2019-05-15T10:13:26.107Z,17.49
2019-05-15T10:14:26.078Z,17.34
2019-05-15T10:15:26.052Z,17.48
2019-05-15T10:16:26.014Z,17.78
2019-05-15T10:17:25.990Z,17.85
2019-05-15T10:18:28.250Z,17.87
2019-05-15T10:19:25.925Z,17.97
2019-05-15T10:20:25.902Z,18.18
2019-05-15T10:21:31.492Z,18.18
2019-05-15T10:22:28.153Z,18.29
2019-05-15T10:23:25.818Z,18.52
2019-05-15T10:24:27.987Z,18.50
2019-05-15T10:25:28.026Z,18.63
2019-05-15T10:26:28.390Z,18.84
2019-05-15T10:27:25.702Z,18.96
2019-05-15T10:28:25.678Z,19.29
2019-05-15T10:29:28.017Z,19.22
2019-05-15T10:30:28.243Z,19.08
2019-05-15T10:31:28.234Z,19.14
2019-05-15T10:32:25.559Z,19.14
2019-05-15T10:33:25.549Z,19.30
2019-05-15T10:34:25.501Z,19.27
2019-05-15T10:35:31.073Z,19.48
2019-05-15T10:36:27.835Z,19.70
2019-05-15T10:37:28.263Z,19.54
2019-05-15T10:38:25.391Z,19.73
2019-05-15T10:39:25.375Z,20.10
2019-05-15T10:40:25.344Z,20.29
2019-05-15T10:41:25.320Z,20.59
2019-05-15T10:42:25.294Z,20.75
2019-05-15T10:43:25.256Z,20.34
2019-05-15T10:44:25.235Z,19.63
2019-05-15T10:45:25.204Z,19.54
2019-05-15T10:46:25.184Z,19.29
2019-05-15T10:47:25.156Z,19.48
2019-05-15T10:48:25.122Z,19.52
2019-05-15T10:49:25.096Z,19.40
2019-05-15T10:50:25.066Z,19.51
2019-05-15T10:51:25.045Z,19.55
2019-05-15T10:52:25.022Z,19.37
2019-05-15T10:53:24.991Z,19.31
2019-05-15T10:54:24.965Z,19.51
2019-05-15T10:55:24.948Z,19.94
2019-05-15T10:56:24.907Z,20.10
2019-05-15T10:57:24.880Z,20.32
2019-05-15T10:58:24.857Z,20.55
2019-05-15T10:59:24.832Z,20.62
2019-05-15T11:00:24.805Z,20.13
2019-05-15T11:01:24.775Z,19.73
2019-05-15T11:02:24.764Z,19.19
2019-05-15T11:03:24.732Z,19.09
2019-05-15T11:04:24.699Z,19.34
2019-05-15T11:05:40.281Z,19.09
2019-05-15T11:06:24.659Z,19.00
2019-05-15T11:07:24.616Z,18.96
2019-05-15T11:08:24.596Z,19.19
2019-05-15T11:09:24.561Z,19.19
2019-05-15T11:10:24.536Z,19.54
2019-05-15T11:11:24.508Z,19.66
2019-05-15T11:12:24.483Z,19.40
2019-05-15T11:13:24.462Z,19.63
2019-05-15T11:14:24.434Z,19.88
2019-05-15T11:15:24.399Z,19.33
2019-05-15T11:16:24.376Z,19.09
2019-05-15T11:17:24.350Z,18.80
2019-05-15T11:18:24.332Z,18.90
2019-05-15T11:19:24.293Z,18.74
2019-05-15T11:20:24.271Z,19.19
2019-05-15T11:21:24.237Z,19.49
2019-05-15T11:22:24.215Z,19.84
2019-05-15T11:23:24.191Z,20.04
2019-05-15T11:24:24.164Z,20.44
2019-05-15T11:25:24.127Z,20.75
2019-05-15T11:26:24.097Z,20.97
2019-05-15T11:27:24.074Z,20.84
2019-05-15T11:28:24.162Z,20.78
2019-05-15T11:29:24.033Z,20.82
2019-05-15T11:30:23.997Z,20.93
2019-05-15T11:31:24.950Z,20.11
2019-05-15T11:32:23.946Z,19.84
2019-05-15T11:33:23.924Z,19.84
2019-05-15T11:34:23.900Z,19.85
2019-05-15T11:35:23.863Z,19.74
2019-05-15T11:36:23.837Z,19.66
2019-05-15T11:37:23.816Z,19.81
2019-05-15T11:38:23.792Z,20.14
2019-05-15T11:39:23.759Z,20.44
2019-05-15T11:40:23.723Z,20.77
2019-05-15T11:41:23.703Z,21.03
2019-05-15T11:42:23.675Z,21.05
2019-05-15T11:43:23.660Z,20.96
2019-05-15T11:44:23.623Z,20.87
2019-05-15T11:45:23.604Z,20.93
2019-05-15T11:46:25.893Z,20.99
2019-05-15T11:47:23.540Z,21.03
2019-05-15T11:48:23.514Z,21.09
2019-05-15T11:49:23.484Z,21.37
2019-05-15T11:50:23.471Z,21.48
2019-05-15T11:51:23.448Z,21.52
2019-05-15T11:52:23.419Z,21.18
2019-05-15T11:53:23.380Z,21.20
2019-05-15T11:54:23.357Z,21.62
2019-05-15T11:55:23.341Z,21.96
2019-05-15T11:56:23.312Z,22.07
2019-05-15T11:57:37.168Z,21.77
2019-05-15T11:58:23.253Z,21.22
2019-05-15T11:59:23.229Z,20.80
2019-05-15T12:00:27.152Z,20.77
2019-05-15T12:01:23.197Z,20.66
2019-05-15T12:02:23.154Z,20.80
2019-05-15T12:03:24.928Z,20.29
2019-05-15T12:04:30.450Z,20.07
2019-05-15T12:05:23.073Z,20.47
2019-05-15T12:06:23.250Z,20.78
2019-05-15T12:07:23.019Z,20.16
2019-05-15T12:08:22.999Z,20.13
2019-05-15T12:09:22.974Z,19.91
2019-05-15T12:10:22.935Z,20.02
2019-05-15T12:11:33.488Z,20.02
2019-05-15T12:12:22.902Z,20.00
2019-05-15T12:13:22.865Z,20.07
2019-05-15T12:14:22.840Z,19.95
2019-05-15T12:15:22.814Z,19.76
2019-05-15T12:16:22.792Z,19.91
2019-05-15T12:17:22.754Z,19.89
2019-05-15T12:18:22.758Z,19.99
2019-05-15T12:19:22.713Z,19.94
2019-05-15T12:20:22.684Z,20.07
2019-05-15T12:21:22.652Z,19.95
2019-05-15T12:22:22.626Z,20.48
2019-05-15T12:23:22.598Z,20.80
2019-05-15T12:24:22.577Z,21.06
2019-05-15T12:25:22.542Z,21.09
2019-05-15T12:26:22.521Z,21.05
2019-05-15T12:27:22.497Z,20.88
2019-05-15T12:28:22.479Z,20.93
2019-05-15T12:29:22.435Z,21.09
2019-05-15T12:30:22.429Z,21.54
2019-05-15T12:31:24.728Z,21.50
2019-05-15T12:32:31.192Z,21.17
2019-05-15T12:33:22.323Z,20.95
2019-05-15T12:34:22.312Z,20.85
2019-05-15T12:35:22.282Z,21.03
2019-05-15T12:36:45.465Z,21.40
2019-05-15T12:37:22.235Z,21.55
2019-05-15T12:38:22.191Z,21.60
2019-05-15T12:39:22.381Z,21.07
2019-05-15T13:00:21.617Z,21.39
2019-05-15T13:01:22.089Z,21.76
2019-05-15T13:02:21.582Z,21.85
2019-05-15T13:03:21.533Z,21.88
2019-05-15T13:04:21.504Z,22.00
2019-05-15T13:05:21.498Z,21.73
2019-05-15T13:06:21.462Z,21.88
2019-05-15T13:07:21.435Z,21.51
2019-05-15T13:08:21.398Z,21.48
2019-05-15T13:09:21.377Z,21.52
2019-05-15T13:10:21.349Z,21.69
2019-05-15T13:11:21.333Z,21.64
2019-05-15T13:12:21.307Z,22.00
2019-05-15T13:13:21.273Z,22.06
2019-05-15T13:14:21.248Z,22.35
2019-05-15T13:15:21.218Z,22.39
2019-05-15T13:16:21.194Z,22.39
2019-05-15T13:17:21.170Z,22.22
2019-05-15T13:18:21.145Z,22.53
2019-05-15T13:19:21.122Z,22.76
2019-05-15T13:20:21.093Z,22.81
2019-05-15T13:21:21.117Z,23.12
2019-05-15T13:22:24.646Z,23.34
2019-05-15T13:23:21.027Z,23.09
2019-05-15T13:24:21.009Z,22.75